EGHH/BOH METAR and TAF weather

Enter ICAO airport designator
Station Type Date Time Source
EGHH METAR 2020/07/13 13:20 UTC NOAA

EGHH 131320Z 24012KT 9999 FEW020 23/08 Q1023


Station Type Date Time Source
EGHH Decoded METAR 2020/07/13 13:20 UTC NOAA

Bournemouth Airport, United Kingdom (EGHH) 50-47N 001-50W 0M
Jul 13, 2020 - 09:20 AM EDT / 2020.07.13 1320 UTC
Wind: from the WSW (240 degrees) at 14 MPH (12 KT):0
Visibility: greater than 7 mile(s):0
Sky conditions: mostly clear
Temperature: 73 F (23 C)
Dew Point: 46 F (8 C)
Relative Humidity: 38%
Pressure (altimeter): 30.21 in. Hg (1023 hPa)
ob: EGHH 131320Z 24012KT 9999 FEW020 23/08 Q1023
cycle: 13

Station Type Date Time Source
EGHH TAF 2020/02/21 21:06 UTC NOAA

TAF EGHH 210200Z 2021/2123 CNL

Example: see airport list